Time;durP1;ratioP1;P1;durP2;ratioP2;P2;SDS_P1;SDS_P2;PMS_P1;PMS_P2;Temp;Humidity;BMP_temperature;BMP_pressure;BME280_temperature;BME280_humidity;BME280_pressure;Samples;Min_cycle;Max_cycle;Signal;HPM_P1;HPM_P2
2023/04/14 00:00:02;;;;;;;0.20;0.20;;;;;;;7.11;78.36;96619.34;4980595;28;20081;-69
2023/04/14 00:02:38;;;;;;;0.35;0.30;;;;;;;7.31;77.30;96622.88;4969083;28;20058;-70
2023/04/14 00:05:09;;;;;;;0.30;0.30;;;;;;;7.28;77.48;96626.75;4974799;28;20046;-70
2023/04/14 00:07:36;;;;;;;0.20;0.20;;;;;;;7.13;78.48;96622.63;4975887;28;20051;-69
2023/04/14 00:10:04;;;;;;;0.43;0.43;;;;;;;7.25;77.53;96621.88;4974372;28;20125;-69
2023/04/14 00:12:32;;;;;;;0.25;0.20;;;;;;;7.04;78.86;96623.81;4974423;28;20043;-69
2023/04/14 00:14:59;;;;;;;0.30;0.30;;;;;;;6.97;78.91;96623.75;4975720;28;20054;-69
2023/04/14 00:17:27;;;;;;;0.25;0.25;;;;;;;7.06;78.41;96616.47;4973425;28;20035;-69
2023/04/14 00:19:54;;;;;;;0.22;0.22;;;;;;;7.07;78.54;96620.72;4976117;28;20054;-69
2023/04/14 00:22:23;;;;;;;0.50;0.50;;;;;;;7.04;78.66;96623.81;4978817;28;20078;-69
2023/04/14 00:24:51;;;;;;;0.30;0.30;;;;;;;7.12;78.27;96634.25;4971009;28;20050;-69
2023/04/14 00:27:18;;;;;;;0.22;0.22;;;;;;;7.05;78.84;96628.09;4976393;28;20154;-69
2023/04/14 00:29:46;;;;;;;0.20;0.20;;;;;;;6.88;79.61;96636.34;4976598;28;20101;-69
2023/04/14 00:32:13;;;;;;;0.30;0.30;;;;;;;6.83;79.83;96635.31;4979442;28;20058;-71
2023/04/14 00:34:41;;;;;;;0.13;0.13;;;;;;;6.86;79.69;96646.34;4976734;28;20043;-70
2023/04/14 00:37:09;;;;;;;0.30;0.30;;;;;;;6.92;79.36;96647.41;4974800;28;20454;-68
2023/04/14 00:39:38;;;;;;;0.22;0.20;;;;;;;6.95;79.23;96650.50;4969035;28;20049;-70
2023/04/14 00:42:05;;;;;;;0.22;0.22;;;;;;;6.73;80.47;96648.09;4972096;28;20074;-70
2023/04/14 00:44:33;;;;;;;0.28;0.28;;;;;;;6.74;80.56;96652.38;4979486;28;20043;-70
2023/04/14 00:47:01;;;;;;;0.40;0.40;;;;;;;6.68;80.85;96651.31;4973179;28;20131;-69
2023/04/14 00:49:28;;;;;;;0.30;0.30;;;;;;;6.72;80.84;96641.97;4955803;28;20047;-69
2023/04/14 00:51:56;;;;;;;0.30;0.30;;;;;;;6.71;80.92;96640.34;4972322;28;20058;-70
2023/04/14 00:54:25;;;;;;;0.17;0.17;;;;;;;6.93;79.58;96647.22;4952932;28;20050;-70
2023/04/14 00:56:56;;;;;;;0.28;0.28;;;;;;;7.05;79.04;96649.31;4954992;28;20494;-69
2023/04/14 00:59:24;;;;;;;0.38;0.20;;;;;;;7.11;78.72;96638.72;4978295;28;20042;-71
2023/04/14 01:01:51;;;;;;;0.32;0.32;;;;;;;7.06;78.74;96635.81;4972334;28;20104;-71
2023/04/14 01:04:19;;;;;;;0.20;0.20;;;;;;;6.92;79.90;96637.59;4976877;28;20094;-70
2023/04/14 01:06:47;;;;;;;0.43;0.43;;;;;;;6.76;80.20;96635.25;4956489;28;20158;-70
2023/04/14 01:09:15;;;;;;;0.20;0.20;;;;;;;6.68;80.75;96629.28;4977174;28;20042;-71
2023/04/14 01:11:50;;;;;;;0.40;0.40;;;;;;;6.73;80.37;96627.72;4974231;28;20101;-70
2023/04/14 01:14:30;;;;;;;0.40;0.40;;;;;;;6.61;81.33;96627.41;4958346;28;20796;-71
2023/04/14 01:17:01;;;;;;;0.20;0.20;;;;;;;6.61;81.35;96631.91;4971365;28;20057;-70
2023/04/14 01:19:41;;;;;;;0.22;0.22;;;;;;;6.67;81.21;96639.06;5012428;23;20104;-72
2023/04/14 01:22:09;;;;;;;0.20;0.20;;;;;;;6.73;80.87;96637.50;5003894;28;20046;-72
2023/04/14 01:24:50;;;;;;;0.22;0.22;;;;;;;6.69;80.90;96630.94;5006228;28;20053;-71
2023/04/14 01:27:32;;;;;;;0.13;0.13;;;;;;;6.65;81.16;96635.78;5005031;28;20054;-72
2023/04/14 01:30:16;;;;;;;0.30;0.30;;;;;;;6.62;81.25;96639.66;5004927;28;20050;-71
2023/04/14 01:32:46;;;;;;;0.20;0.20;;;;;;;6.64;81.18;96644.78;4983966;28;20050;-72
2023/04/14 01:35:19;;;;;;;0.22;0.22;;;;;;;6.60;81.45;96654.94;4985779;28;20047;-72
2023/04/14 01:37:48;;;;;;;0.15;0.15;;;;;;;6.58;81.35;96654.31;4987346;28;20074;-73
2023/04/14 01:40:17;;;;;;;0.45;0.45;;;;;;;6.47;82.01;96660.13;4984300;28;20085;-73
2023/04/14 01:42:47;;;;;;;0.20;0.20;;;;;;;6.59;81.35;96648.00;4986813;28;20105;-74
2023/04/14 01:45:16;;;;;;;0.20;0.20;;;;;;;6.54;81.59;96661.00;4986496;28;20046;-74
2023/04/14 01:47:46;;;;;;;0.30;0.30;;;;;;;6.52;81.95;96652.44;4982452;28;20505;-74
2023/04/14 01:50:15;;;;;;;0.57;0.57;;;;;;;6.67;81.03;96654.16;4987774;28;20039;-74
2023/04/14 01:52:43;;;;;;;0.30;0.30;;;;;;;6.87;80.18;96647.97;4982802;28;20093;-72
2023/04/14 01:55:11;;;;;;;0.20;0.20;;;;;;;6.79;80.35;96640.19;4988912;28;20038;-72
2023/04/14 01:57:42;;;;;;;0.30;0.30;;;;;;;6.83;80.02;96636.13;4991772;28;20405;-72
2023/04/14 02:00:11;;;;;;;0.20;0.20;;;;;;;6.85;79.95;96638.59;5000639;28;20174;-74
2023/04/14 02:02:43;;;;;;;0.35;0.35;;;;;;;6.69;80.71;96623.78;4988918;28;20390;-74
2023/04/14 02:05:12;;;;;;;0.20;0.20;;;;;;;6.67;80.81;96625.81;4992519;28;20046;-71
2023/04/14 02:07:42;;;;;;;0.30;0.30;;;;;;;6.93;79.62;96631.28;4988637;28;20505;-72
2023/04/14 02:10:10;;;;;;;0.20;0.20;;;;;;;6.62;80.84;96633.53;5008815;28;20425;-72
2023/04/14 02:12:43;;;;;;;0.30;0.30;;;;;;;6.73;80.19;96630.34;4984164;28;20082;-72
2023/04/14 02:15:12;;;;;;;0.20;0.20;;;;;;;6.66;80.67;96631.31;4991077;28;20678;-72
2023/04/14 02:17:40;;;;;;;0.20;0.20;;;;;;;6.63;80.92;96625.41;4992771;28;20416;-73
2023/04/14 02:20:09;;;;;;;0.22;0.22;;;;;;;6.60;81.10;96620.47;4990499;28;20042;-72
2023/04/14 02:22:38;;;;;;;0.20;0.20;;;;;;;6.63;80.99;96621.94;4993121;28;20046;-72
2023/04/14 02:25:07;;;;;;;0.52;0.52;;;;;;;6.60;81.10;96607.22;4988516;28;20046;-72
2023/04/14 02:27:37;;;;;;;0.20;0.20;;;;;;;6.61;80.93;96613.34;4993881;28;20066;-72
2023/04/14 02:30:10;;;;;;;0.20;0.20;;;;;;;6.61;80.77;96621.31;4992189;28;20053;-72
2023/04/14 02:32:39;;;;;;;0.22;0.22;;;;;;;6.38;82.03;96626.84;4992855;28;20038;-74
2023/04/14 02:35:12;;;;;;;0.47;0.47;;;;;;;6.26;82.72;96631.00;4985632;28;20046;-74
2023/04/14 02:37:44;;;;;;;;;;;;;;;6.28;82.71;96633.47;4991480;28;20076;-73
2023/04/14 02:40:14;;;;;;;0.10;0.10;;;;;;;6.34;82.25;96635.34;4991477;28;19921;-72
2023/04/14 02:42:46;;;;;;;0.32;0.32;;;;;;;6.20;82.91;96637.09;4990724;28;20464;-72
2023/04/14 02:45:19;;;;;;;0.35;0.35;;;;;;;6.29;82.56;96640.41;4993116;28;20038;-71
2023/04/14 02:47:52;;;;;;;0.20;0.20;;;;;;;6.20;83.03;96640.56;4991488;28;20046;-75
2023/04/14 02:50:21;;;;;;;0.30;0.30;;;;;;;6.26;82.62;96647.72;4993121;28;20062;-74
2023/04/14 02:53:04;;;;;;;0.40;0.40;;;;;;;6.15;83.15;96642.94;4990714;28;20131;-73
2023/04/14 02:55:36;;;;;;;0.30;0.30;;;;;;;6.15;83.12;96645.59;4995514;28;20533;-74
2023/04/14 02:58:04;;;;;;;0.40;0.40;;;;;;;6.15;82.90;96640.31;4992879;28;20124;-74
2023/04/14 03:00:36;;;;;;;0.20;0.20;;;;;;;6.15;82.97;96639.47;4992514;28;20038;-74
2023/04/14 03:03:05;;;;;;;0.15;0.15;;;;;;;6.21;82.59;96638.72;5004456;28;20044;-74
2023/04/14 03:05:34;;;;;;;0.20;0.20;;;;;;;6.49;81.30;96642.22;4990362;28;20070;-72
2023/04/14 03:08:11;;;;;;;0.20;0.20;;;;;;;6.25;82.29;96638.16;5004511;28;20089;-72
2023/04/14 03:10:42;;;;;;;0.20;0.20;;;;;;;6.13;82.91;96639.66;4989779;28;20046;-74
2023/04/14 03:13:11;;;;;;;0.35;0.35;;;;;;;6.04;83.38;96645.28;4989798;28;20034;-74
2023/04/14 03:15:39;;;;;;;0.25;0.25;;;;;;;5.96;83.77;96645.41;4994992;28;20054;-75
2023/04/14 03:18:07;;;;;;;0.10;0.10;;;;;;;5.86;84.22;96656.28;4987483;28;20061;-72
2023/04/14 03:20:36;;;;;;;0.20;0.20;;;;;;;5.79;84.65;96650.94;4992346;28;20038;-72
2023/04/14 03:23:04;;;;;;;0.20;0.20;;;;;;;5.78;84.87;96653.78;4985155;28;20039;-71
2023/04/14 03:25:40;;;;;;;0.20;0.20;;;;;;;5.80;84.82;96642.00;5003328;28;20068;-72
2023/04/14 03:28:15;;;;;;;0.43;0.43;;;;;;;5.79;84.79;96640.34;4984678;28;20053;-71
2023/04/14 03:30:47;;;;;;;0.20;0.20;;;;;;;5.91;83.73;96635.41;5005145;28;20070;-72
2023/04/14 03:33:19;;;;;;;0.22;0.22;;;;;;;5.91;84.09;96631.94;4987807;28;20519;-72
2023/04/14 03:35:49;;;;;;;0.40;0.40;;;;;;;6.01;83.48;96627.97;5006151;28;20513;-73
2023/04/14 03:38:18;;;;;;;0.20;0.20;;;;;;;5.99;83.98;96629.97;4990139;28;20038;-73
2023/04/14 03:40:47;;;;;;;0.32;0.32;;;;;;;6.05;83.57;96629.22;4990442;28;20449;-72
2023/04/14 03:43:21;;;;;;;0.40;0.40;;;;;;;6.23;82.91;96640.16;4989335;28;20046;-72
2023/04/14 03:45:56;;;;;;;0.40;0.40;;;;;;;6.29;82.49;96637.78;5006322;28;20046;-72
2023/04/14 03:48:26;;;;;;;0.22;0.22;;;;;;;6.26;82.67;96634.50;4986629;28;20046;-72
2023/04/14 03:50:54;;;;;;;0.20;0.20;;;;;;;6.11;83.10;96635.59;5004347;28;20096;-72
2023/04/14 03:53:22;;;;;;;0.20;0.20;;;;;;;5.98;83.73;96633.63;4992959;28;20506;-74
2023/04/14 03:55:52;;;;;;;0.32;0.32;;;;;;;6.02;83.54;96626.94;5004117;28;20060;-72
2023/04/14 03:58:21;;;;;;;0.32;0.32;;;;;;;6.01;83.89;96635.09;4989995;28;20133;-72
2023/04/14 04:00:51;;;;;;;0.20;0.20;;;;;;;5.95;84.10;96622.59;4999516;28;20134;-73
2023/04/14 04:03:20;;;;;;;0.35;0.35;;;;;;;5.99;83.91;96624.69;4987030;28;20113;-74
2023/04/14 04:05:48;;;;;;;0.43;0.43;;;;;;;5.96;84.26;96633.00;4988112;28;20437;-74
2023/04/14 04:08:17;;;;;;;0.20;0.20;;;;;;;5.93;84.25;96635.19;4987498;28;20493;-73
2023/04/14 04:10:46;;;;;;;0.40;0.40;;;;;;;5.87;84.53;96648.16;4999865;28;20070;-73
2023/04/14 04:13:17;;;;;;;0.55;0.55;;;;;;;5.82;84.65;96649.72;4985712;28;20092;-72
2023/04/14 04:15:48;;;;;;;0.47;0.47;;;;;;;5.71;84.99;96647.59;5007445;28;20536;-72
2023/04/14 04:18:17;;;;;;;0.40;0.40;;;;;;;5.63;85.46;96647.69;4998086;28;20042;-73
2023/04/14 04:20:46;;;;;;;0.22;0.22;;;;;;;5.60;85.58;96651.56;4982520;28;20054;-73
2023/04/14 04:23:16;;;;;;;0.20;0.20;;;;;;;5.61;85.51;96652.34;4984575;28;20042;-72
2023/04/14 04:25:44;;;;;;;0.38;0.30;;;;;;;5.69;85.00;96654.91;4990932;28;20054;-73
2023/04/14 04:28:21;;;;;;;0.20;0.20;;;;;;;5.56;85.57;96644.97;4988468;28;20125;-73
2023/04/14 04:30:50;;;;;;;0.45;0.45;;;;;;;5.64;85.01;96644.03;4991085;28;20481;-72
2023/04/14 04:33:18;;;;;;;0.20;0.20;;;;;;;5.61;84.95;96649.69;4982666;28;20065;-72
2023/04/14 04:35:46;;;;;;;0.30;0.30;;;;;;;5.67;85.38;96641.03;5005978;28;20046;-72
2023/04/14 04:38:14;;;;;;;0.20;0.20;;;;;;;5.65;85.22;96641.22;4988509;28;20052;-73
2023/04/14 04:40:45;;;;;;;0.20;0.20;;;;;;;5.62;85.67;96644.22;5004266;28;20056;-73
2023/04/14 04:43:22;;;;;;;0.55;0.55;;;;;;;5.67;85.39;96643.69;4985477;28;20468;-72
2023/04/14 04:46:02;;;;;;;0.20;0.20;;;;;;;5.84;84.77;96645.06;5004254;28;20133;-72
2023/04/14 04:48:30;;;;;;;0.28;0.28;;;;;;;5.80;84.91;96636.69;4981689;28;20054;-72
2023/04/14 04:50:57;;;;;;;0.43;0.43;;;;;;;5.65;85.71;96640.38;4989884;28;20047;-72
2023/04/14 04:53:25;;;;;;;0.10;0.10;;;;;;;5.82;85.07;96636.47;4986520;28;20097;-72
2023/04/14 04:55:52;;;;;;;0.15;0.15;;;;;;;5.90;84.99;96631.13;4989122;28;20058;-72
2023/04/14 04:58:20;;;;;;;0.20;0.20;;;;;;;5.85;84.88;96629.00;4987644;28;20100;-72
2023/04/14 05:00:49;;;;;;;0.22;0.22;;;;;;;5.83;84.92;96633.66;4989009;28;20038;-72
2023/04/14 05:03:16;;;;;;;0.20;0.20;;;;;;;5.91;84.79;96627.47;4984631;28;20466;-72
2023/04/14 05:05:44;;;;;;;0.20;0.20;;;;;;;5.87;84.67;96626.16;4987760;28;20513;-72
2023/04/14 05:08:12;;;;;;;0.43;0.43;;;;;;;5.84;84.86;96629.19;4984462;28;20073;-72
2023/04/14 05:10:41;;;;;;;0.57;0.57;;;;;;;5.79;85.04;96632.41;4985532;28;20046;-72
2023/04/14 05:13:09;;;;;;;0.28;0.28;;;;;;;5.93;84.80;96635.19;4983178;28;20098;-72
2023/04/14 05:15:36;;;;;;;0.40;0.40;;;;;;;5.83;84.63;96631.00;4986070;28;20129;-72
2023/04/14 05:18:05;;;;;;;0.22;0.22;;;;;;;5.70;85.10;96633.53;4985258;28;20473;-72
2023/04/14 05:20:33;;;;;;;0.20;0.20;;;;;;;5.63;85.47;96634.47;4986863;28;20528;-72
2023/04/14 05:23:02;;;;;;;0.40;0.40;;;;;;;5.60;85.78;96633.03;4989638;28;20046;-71
2023/04/14 05:25:29;;;;;;;0.60;0.60;;;;;;;5.70;85.46;96636.19;5004308;28;20050;-71
2023/04/14 05:27:57;;;;;;;0.20;0.20;;;;;;;5.74;85.48;96633.97;4988885;28;20449;-73
2023/04/14 05:30:25;;;;;;;0.32;0.32;;;;;;;5.78;85.38;96633.41;4986619;28;20046;-73
2023/04/14 05:32:52;;;;;;;0.22;0.22;;;;;;;5.82;85.30;96641.78;4987339;28;20049;-72
2023/04/14 05:35:23;;;;;;;0.20;0.20;;;;;;;5.91;84.73;96630.13;4987298;28;20093;-72
2023/04/14 05:37:51;;;;;;;0.15;0.15;;;;;;;5.88;85.01;96631.31;4989200;28;20046;-72
2023/04/14 05:40:19;;;;;;;0.30;0.28;;;;;;;5.96;84.91;96625.06;4988627;28;20108;-72
2023/04/14 05:42:47;;;;;;;0.30;0.30;;;;;;;6.07;84.97;96629.03;4985852;28;20082;-73
2023/04/14 05:45:14;;;;;;;0.22;0.22;;;;;;;6.12;84.10;96624.00;4981926;28;20046;-73
2023/04/14 05:47:42;;;;;;;0.25;0.20;;;;;;;6.12;84.50;96624.81;5006139;28;20097;-73
2023/04/14 05:50:11;;;;;;;0.30;0.30;;;;;;;6.24;84.24;96625.91;4983638;28;20070;-73
2023/04/14 05:52:39;;;;;;;0.45;0.45;;;;;;;6.31;83.96;96631.28;4986769;28;20614;-72
2023/04/14 05:55:08;;;;;;;0.43;0.43;;;;;;;6.26;84.25;96631.84;4981133;28;20441;-72
2023/04/14 05:57:35;;;;;;;0.40;0.40;;;;;;;6.36;83.93;96623.56;4975565;28;20038;-73
2023/04/14 06:00:05;;;;;;;0.43;0.43;;;;;;;6.39;83.39;96615.22;4986808;28;20448;-73
2023/04/14 06:02:39;;;;;;;0.32;0.32;;;;;;;6.38;83.04;96628.66;4979150;28;20054;-74
2023/04/14 06:05:08;;;;;;;0.20;0.20;;;;;;;6.25;83.55;96627.53;4995170;28;20056;-74
2023/04/14 06:07:36;;;;;;;0.40;0.40;;;;;;;6.36;83.17;96630.69;4984931;28;20402;-73
2023/04/14 06:10:06;;;;;;;0.52;0.52;;;;;;;6.35;83.41;96634.34;4991881;28;20071;-73
2023/04/14 06:12:33;;;;;;;0.30;0.30;;;;;;;6.43;83.35;96628.94;4991666;28;20035;-74
2023/04/14 06:15:01;;;;;;;0.20;0.20;;;;;;;6.43;83.32;96629.75;4986734;28;20046;-72
2023/04/14 06:17:28;;;;;;;0.32;0.32;;;;;;;6.43;83.51;96623.63;4990456;28;20046;-72
2023/04/14 06:19:57;;;;;;;0.22;0.22;;;;;;;6.43;83.31;96616.50;4989137;28;20055;-72
2023/04/14 06:22:28;;;;;;;0.32;0.30;;;;;;;6.53;82.61;96621.47;4987266;28;20046;-73
2023/04/14 06:24:56;;;;;;;0.40;0.40;;;;;;;6.59;82.66;96618.84;4988443;28;20058;-73
2023/04/14 06:27:25;;;;;;;0.52;0.52;;;;;;;6.56;82.70;96616.56;4980937;28;20043;-72
2023/04/14 06:29:52;;;;;;;0.45;0.45;;;;;;;6.41;83.13;96613.22;4987866;28;20519;-73
2023/04/14 06:32:20;;;;;;;0.30;0.30;;;;;;;6.53;82.63;96614.31;4984979;28;20038;-73
2023/04/14 06:34:48;;;;;;;0.35;0.35;;;;;;;6.68;82.11;96602.78;4992684;28;20054;-73
2023/04/14 06:37:18;;;;;;;0.30;0.30;;;;;;;6.80;81.97;96601.22;4986210;28;20501;-73
2023/04/14 06:39:46;;;;;;;0.20;0.20;;;;;;;6.90;81.53;96599.84;4989655;28;20046;-72
2023/04/14 06:42:14;;;;;;;0.25;0.25;;;;;;;6.81;81.25;96602.84;4988495;28;20066;-72
2023/04/14 06:44:43;;;;;;;0.70;0.70;;;;;;;6.91;81.18;96595.38;4991542;28;20046;-73
2023/04/14 06:47:10;;;;;;;0.20;0.20;;;;;;;7.02;80.72;96601.94;4991503;28;20542;-73
2023/04/14 06:49:38;;;;;;;0.40;0.40;;;;;;;7.04;80.83;96600.75;4992453;28;20095;-72
2023/04/14 06:52:06;;;;;;;0.20;0.20;;;;;;;7.11;81.02;96606.06;4983510;28;20038;-72
2023/04/14 06:54:33;;;;;;;0.15;0.15;;;;;;;7.10;80.71;96615.84;4988464;28;20050;-72
2023/04/14 06:57:01;;;;;;;0.30;0.30;;;;;;;7.15;80.77;96613.44;4983555;28;20108;-73
2023/04/14 06:59:29;;;;;;;0.20;0.20;;;;;;;7.15;80.28;96620.59;4990831;28;20043;-73
2023/04/14 07:01:58;;;;;;;0.20;0.20;;;;;;;7.04;80.38;96624.63;4984459;28;20080;-74
2023/04/14 07:04:26;;;;;;;0.20;0.20;;;;;;;6.97;80.54;96618.44;4988373;28;20117;-73
2023/04/14 07:06:53;;;;;;;0.82;0.60;;;;;;;7.04;80.44;96616.66;4985608;28;20066;-73
2023/04/14 07:09:21;;;;;;;0.20;0.20;;;;;;;7.09;80.64;96610.75;4989750;28;20050;-74
2023/04/14 07:11:49;;;;;;;0.20;0.20;;;;;;;7.04;81.30;96619.31;4986205;28;20145;-73
2023/04/14 07:14:16;;;;;;;0.25;0.25;;;;;;;6.99;81.63;96622.53;4988092;28;20464;-73
2023/04/14 07:16:44;;;;;;;0.25;0.25;;;;;;;7.06;81.06;96630.53;4993305;28;20050;-73
2023/04/14 07:19:13;;;;;;;0.30;0.30;;;;;;;7.05;80.94;96636.06;5018446;23;20404;-72
2023/04/14 07:21:40;;;;;;;0.20;0.20;;;;;;;7.03;81.48;96632.78;5011381;28;20061;-72
2023/04/14 07:24:08;;;;;;;0.32;0.32;;;;;;;7.02;81.48;96631.94;5010818;28;20488;-72
2023/04/14 07:26:36;;;;;;;0.30;0.30;;;;;;;7.15;81.18;96628.56;5009310;28;20037;-72
2023/04/14 07:29:03;;;;;;;0.40;0.40;;;;;;;7.23;81.21;96620.41;5010236;28;20041;-72
2023/04/14 07:31:33;;;;;;;0.43;0.43;;;;;;;7.28;80.62;96621.44;5007698;28;20046;-72
2023/04/14 07:34:01;;;;;;;0.30;0.30;;;;;;;7.39;80.45;96622.72;5011684;28;20512;-72
2023/04/14 07:36:32;;;;;;;0.32;0.30;;;;;;;7.46;80.24;96606.81;5008486;28;20049;-72
2023/04/14 07:38:59;;;;;;;0.80;0.80;;;;;;;7.52;80.17;96606.84;5011020;28;20397;-72
2023/04/14 07:41:27;;;;;;;0.30;0.30;;;;;;;7.56;78.96;96608.09;5007895;28;20046;-71
2023/04/14 07:43:56;;;;;;;0.22;0.22;;;;;;;7.63;79.10;96608.09;5011624;28;20092;-71
2023/04/14 07:46:24;;;;;;;0.30;0.30;;;;;;;7.62;78.46;96604.63;5012076;28;20034;-71
2023/04/14 07:48:51;;;;;;;0.30;0.30;;;;;;;7.67;78.10;96604.84;5009999;28;20042;-71
2023/04/14 07:51:19;;;;;;;0.30;0.30;;;;;;;7.64;78.26;96615.88;5013206;28;20104;-71
2023/04/14 07:53:49;;;;;;;0.20;0.20;;;;;;;7.53;78.85;96623.59;5010389;28;20137;-71
2023/04/14 07:56:17;;;;;;;0.25;0.25;;;;;;;7.66;78.44;96623.63;5006230;28;20038;-71
2023/04/14 07:58:45;;;;;;;0.20;0.20;;;;;;;7.64;78.35;96615.88;5006817;28;20062;-72
2023/04/14 08:01:13;;;;;;;0.32;0.32;;;;;;;7.72;78.20;96625.47;5011778;28;20038;-72
2023/04/14 08:03:40;;;;;;;0.25;0.20;;;;;;;7.76;78.50;96624.06;5009505;28;20119;-72
2023/04/14 08:06:12;;;;;;;0.40;0.40;;;;;;;7.75;78.59;96625.09;5011752;28;20049;-71
2023/04/14 08:08:39;;;;;;;0.50;0.50;;;;;;;7.73;79.95;96616.50;5003087;28;20050;-71
2023/04/14 08:11:08;;;;;;;0.20;0.20;;;;;;;7.74;79.94;96599.53;5007593;28;20042;-71
2023/04/14 08:13:36;;;;;;;0.20;0.20;;;;;;;7.74;80.77;96600.38;5003675;28;20142;-71
2023/04/14 08:16:03;;;;;;;0.40;0.40;;;;;;;7.77;81.39;96598.31;5011372;28;20046;-71
2023/04/14 08:18:31;;;;;;;0.32;0.32;;;;;;;7.77;82.18;96598.31;5010931;28;20041;-71
2023/04/14 08:20:58;;;;;;;0.20;0.20;;;;;;;7.78;81.01;96605.28;5009911;28;20050;-71
2023/04/14 08:23:26;;;;;;;0.20;0.20;;;;;;;7.76;81.50;96604.66;5008176;28;20093;-71
2023/04/14 08:25:54;;;;;;;0.30;0.30;;;;;;;7.82;81.84;96603.84;5010531;28;20053;-71
2023/04/14 08:28:23;;;;;;;0.35;0.35;;;;;;;7.84;81.46;96604.47;5008212;28;21213;-71
2023/04/14 08:30:51;;;;;;;1.15;1.05;;;;;;;7.86;82.00;96603.25;5008817;28;20050;-71
2023/04/14 08:33:18;;;;;;;0.32;0.32;;;;;;;7.89;81.54;96605.47;5007605;28;20084;-71
2023/04/14 08:35:46;;;;;;;0.52;0.52;;;;;;;7.95;82.31;96619.81;5007758;28;20104;-71
2023/04/14 08:38:24;;;;;;;0.60;0.60;;;;;;;7.98;81.60;96622.88;5006106;28;20062;-71
2023/04/14 08:40:55;;;;;;;0.20;0.20;;;;;;;8.04;80.45;96624.72;5007581;28;20528;-71
2023/04/14 08:43:24;;;;;;;0.40;0.40;;;;;;;7.94;81.05;96615.50;5008056;28;20084;-71
2023/04/14 08:45:52;;;;;;;0.20;0.20;;;;;;;7.95;81.32;96606.53;5006663;28;20210;-71
2023/04/14 08:48:20;;;;;;;0.20;0.20;;;;;;;7.90;82.24;96615.09;5009481;28;20065;-71
2023/04/14 08:50:58;;;;;;;0.43;0.43;;;;;;;7.91;81.83;96621.22;5005461;28;20141;-71
2023/04/14 08:53:26;;;;;;;0.43;0.43;;;;;;;7.90;82.77;96614.25;5009454;28;20072;-72
2023/04/14 08:55:54;;;;;;;0.50;0.50;;;;;;;7.91;83.15;96613.25;5006071;28;20045;-71
2023/04/14 08:58:26;;;;;;;0.20;0.20;;;;;;;7.97;83.62;96605.31;5004094;28;20072;-71
2023/04/14 09:00:53;;;;;;;0.52;0.52;;;;;;;8.04;83.46;96611.44;5007623;28;20058;-71
2023/04/14 09:03:21;;;;;;;0.45;0.45;;;;;;;8.02;82.78;96616.13;5004326;28;20046;-71
2023/04/14 09:05:50;;;;;;;0.30;0.30;;;;;;;8.01;82.76;96614.50;5007300;28;20046;-71
2023/04/14 09:08:17;;;;;;;0.40;0.40;;;;;;;7.98;83.70;96617.56;5005057;28;20096;-71
2023/04/14 09:10:45;;;;;;;0.30;0.30;;;;;;;7.94;84.40;96611.03;5006082;28;20049;-71
2023/04/14 09:13:14;;;;;;;0.30;0.30;;;;;;;7.78;84.14;96611.41;5003679;28;20091;-71
2023/04/14 09:15:43;;;;;;;0.45;0.20;;;;;;;7.63;84.16;96622.19;5007730;28;20041;-71
2023/04/14 09:18:11;;;;;;;0.40;0.40;;;;;;;7.67;84.20;96612.81;5009298;28;20096;-71
2023/04/14 09:20:38;;;;;;;0.30;0.30;;;;;;;7.63;85.35;96616.88;5009713;28;20708;-71
2023/04/14 09:23:08;;;;;;;0.20;0.20;;;;;;;7.68;85.02;96603.81;5007072;28;20073;-73
2023/04/14 09:25:38;;;;;;;0.25;0.25;;;;;;;7.64;85.45;96617.69;5010265;28;20452;-71
2023/04/14 09:28:05;;;;;;;0.28;0.28;;;;;;;7.54;85.65;96619.91;5004906;28;20053;-72
2023/04/14 09:30:33;;;;;;;0.30;0.30;;;;;;;7.57;86.09;96625.66;5008297;28;20045;-71
2023/04/14 09:33:05;;;;;;;0.32;0.32;;;;;;;7.53;86.32;96616.44;5007058;28;20049;-71
2023/04/14 09:35:43;;;;;;;0.40;0.40;;;;;;;7.56;86.99;96617.88;5010284;28;20088;-71
2023/04/14 09:38:10;;;;;;;0.40;0.40;;;;;;;7.45;87.35;96619.28;5001734;28;20400;-71
2023/04/14 09:40:38;;;;;;;0.20;0.20;;;;;;;7.35;87.14;96629.47;5007250;28;20042;-71
2023/04/14 09:43:06;;;;;;;0.20;0.20;;;;;;;7.40;87.05;96632.31;5004535;28;20042;-71
2023/04/14 09:45:41;;;;;;;0.22;0.22;;;;;;;7.50;86.95;96630.09;5006255;28;20053;-71
2023/04/14 09:48:11;;;;;;;0.30;0.30;;;;;;;7.44;87.57;96630.09;5003132;28;20397;-72
2023/04/14 09:50:59;;;;;;;0.43;0.43;;;;;;;7.62;87.07;96631.16;5007521;28;20050;-71
2023/04/14 09:53:28;;;;;;;0.30;0.30;;;;;;;7.60;87.98;96630.53;5004526;28;20037;-71
2023/04/14 09:55:56;;;;;;;0.38;0.38;;;;;;;7.74;86.18;96626.91;5003303;28;20046;-71
2023/04/14 09:58:24;;;;;;;0.30;0.30;;;;;;;7.83;84.58;96624.88;5009275;28;20066;-71
2023/04/14 10:00:56;;;;;;;0.22;0.22;;;;;;;7.71;84.78;96629.16;5006193;28;20057;-71
2023/04/14 10:03:35;;;;;;;0.22;0.22;;;;;;;7.66;85.58;96634.25;5007248;28;20061;-71
2023/04/14 10:06:06;;;;;;;0.25;0.25;;;;;;;7.67;84.57;96636.72;5005131;28;20072;-71
2023/04/14 10:08:35;;;;;;;0.20;0.20;;;;;;;7.64;85.21;96638.94;5008307;28;20061;-71
2023/04/14 10:11:17;;;;;;;0.20;0.20;;;;;;;7.59;85.84;96650.16;5006873;28;20050;-71
2023/04/14 10:13:46;;;;;;;0.30;0.30;;;;;;;7.65;86.02;96648.56;5009588;28;20107;-71
2023/04/14 10:16:14;;;;;;;0.30;0.30;;;;;;;7.61;86.29;96647.31;5007367;28;20513;-71
2023/04/14 10:18:43;;;;;;;0.32;0.32;;;;;;;7.63;86.86;96639.97;5013552;28;20557;-71
2023/04/14 10:21:11;;;;;;;0.20;0.20;;;;;;;7.69;86.80;96649.78;5013895;28;20305;-71
2023/04/14 10:23:40;;;;;;;0.28;0.28;;;;;;;7.66;86.95;96658.16;5012649;28;20053;-71
2023/04/14 10:26:08;;;;;;;0.32;0.32;;;;;;;7.63;86.80;96656.72;5003057;28;20045;-71
2023/04/14 10:28:37;;;;;;;0.30;0.30;;;;;;;7.58;87.11;96653.03;5012573;28;20463;-71
2023/04/14 10:31:08;;;;;;;1.05;1.05;;;;;;;7.63;86.83;96650.59;5012803;28;20393;-71
2023/04/14 10:33:36;;;;;;;0.52;0.52;;;;;;;7.67;86.91;96641.22;5016147;28;20342;-71
2023/04/14 10:36:06;;;;;;;0.32;0.32;;;;;;;7.74;86.47;96636.72;5014459;28;20034;-71
2023/04/14 10:38:38;;;;;;;0.50;0.50;;;;;;;7.80;86.44;96643.88;5011455;28;20522;-72
2023/04/14 10:41:06;;;;;;;0.25;0.25;;;;;;;7.84;87.11;96639.00;5011285;28;20103;-71
2023/04/14 10:43:35;;;;;;;0.45;0.45;;;;;;;7.92;86.38;96634.31;5010970;28;20044;-71
2023/04/14 10:46:05;;;;;;;0.20;0.20;;;;;;;7.92;86.23;96629.00;5012955;28;20046;-71
2023/04/14 10:48:34;;;;;;;0.30;0.30;;;;;;;8.02;86.21;96623.28;5008233;28;20046;-71
2023/04/14 10:51:03;;;;;;;0.40;0.40;;;;;;;8.04;85.58;96614.09;5014095;28;20045;-70
2023/04/14 10:53:45;;;;;;;0.20;0.20;;;;;;;7.94;86.76;96611.03;5006924;28;20429;-70
2023/04/14 10:56:13;;;;;;;0.30;0.30;;;;;;;7.87;86.87;96612.84;5012526;28;20037;-72
2023/04/14 10:58:40;;;;;;;0.22;0.22;;;;;;;7.95;87.20;96607.34;5004543;28;20077;-72
2023/04/14 11:01:24;;;;;;;0.30;0.30;;;;;;;8.07;87.55;96607.56;5014117;28;20037;-72
2023/04/14 11:03:54;;;;;;;0.43;0.43;;;;;;;8.18;86.80;96606.97;5006039;28;20058;-72
2023/04/14 11:06:48;;;;;;;0.32;0.32;;;;;;;8.25;85.27;96604.28;5012469;28;20526;-72
2023/04/14 11:09:32;;;;;;;0.20;0.20;;;;;;;8.26;86.13;96604.09;5003027;28;20041;-70
2023/04/14 11:12:06;;;;;;;0.20;0.20;;;;;;;8.30;85.40;96608.00;5011844;28;20046;-70
2023/04/14 11:14:35;;;;;;;0.20;0.20;;;;;;;8.19;85.97;96597.16;5007527;28;20046;-72
2023/04/14 11:17:03;;;;;;;0.32;0.32;;;;;;;8.20;83.78;96593.47;5012098;28;20084;-72
2023/04/14 11:19:32;;;;;;;0.20;0.20;;;;;;;8.06;84.16;96584.66;5009103;28;20042;-70
2023/04/14 11:21:59;;;;;;;0.20;0.20;;;;;;;8.15;85.33;96585.28;5010753;28;20053;-73
2023/04/14 11:24:28;;;;;;;0.28;0.28;;;;;;;8.22;85.32;96589.56;5011736;28;20042;-70
2023/04/14 11:26:56;;;;;;;0.30;0.30;;;;;;;8.23;85.56;96588.53;5009232;28;20105;-70
2023/04/14 11:29:24;;;;;;;0.30;0.30;;;;;;;8.20;86.08;96588.16;5009534;28;20493;-72
2023/04/14 11:32:02;;;;;;;0.43;0.43;;;;;;;8.10;84.76;96575.25;5008993;28;20267;-72
2023/04/14 11:34:29;;;;;;;0.32;0.32;;;;;;;8.15;85.16;96580.78;5010003;28;20048;-72
2023/04/14 11:36:57;;;;;;;0.40;0.40;;;;;;;7.98;83.36;96574.25;5006651;28;20047;-73
2023/04/14 11:39:25;;;;;;;0.50;0.50;;;;;;;7.92;85.00;96572.38;5011168;28;20054;-72
2023/04/14 11:41:54;;;;;;;0.38;0.38;;;;;;;7.95;85.86;96577.28;5009538;28;20755;-72
2023/04/14 11:44:22;;;;;;;0.20;0.20;;;;;;;8.04;85.18;96582.22;5005129;28;20050;-72
2023/04/14 11:46:50;;;;;;;0.40;0.40;;;;;;;7.98;84.65;96580.38;5008678;28;20046;-73
2023/04/14 11:49:17;;;;;;;0.43;0.43;;;;;;;8.08;85.79;96578.13;5006140;28;20450;-72
2023/04/14 11:51:48;;;;;;;0.40;0.40;;;;;;;8.05;85.99;96583.03;5003267;28;20426;-72